Time;durP1;ratioP1;P1;durP2;ratioP2;P2;SDS_P1;SDS_P2;PMS_P1;PMS_P2;Temp;Humidity;BMP_temperature;BMP_pressure;BME280_temperature;BME280_humidity;BME280_pressure;Samples;Min_cycle;Max_cycle;Signal;HPM_P1;HPM_P2
2022/09/15 00:02:09;;;;;;;1.60;0.90;;;;;;;17.00;60.55;100173.19;4943078;28;97541;-47
2022/09/15 00:04:34;;;;;;;0.90;0.90;;;;;;;16.98;60.60;100178.56;4930412;28;96899;-46
2022/09/15 00:07:00;;;;;;;1.20;1.10;;;;;;;16.96;60.70;100172.06;4940843;28;96775;-47
2022/09/15 00:09:25;;;;;;;2.70;1.27;;;;;;;16.92;60.54;100171.66;4935916;28;97151;-47
2022/09/15 00:11:51;;;;;;;1.67;1.10;;;;;;;16.89;60.63;100179.06;4933822;28;97057;-47
2022/09/15 00:14:17;;;;;;;1.63;1.30;;;;;;;16.87;60.57;100183.66;4941797;28;98542;-47
2022/09/15 00:16:42;;;;;;;2.20;1.10;;;;;;;16.84;60.64;100179.22;4938484;28;97198;-47
2022/09/15 00:19:07;;;;;;;0.87;0.87;;;;;;;16.81;60.74;100183.09;4943743;28;97581;-47
2022/09/15 00:21:36;;;;;;;1.63;0.90;;;;;;;16.78;60.65;100179.34;4944762;28;96799;-46
2022/09/15 00:24:01;;;;;;;1.80;1.10;;;;;;;16.75;60.76;100177.69;4938890;28;97346;-47
2022/09/15 00:26:28;;;;;;;1.57;0.90;;;;;;;16.73;60.67;100183.03;4949275;28;97153;-46
2022/09/15 00:28:54;;;;;;;2.60;1.23;;;;;;;16.70;60.71;100184.13;4927837;28;97303;-47
2022/09/15 00:31:22;;;;;;;1.80;1.17;;;;;;;16.66;60.68;100183.75;4946964;28;97075;-47
2022/09/15 00:33:49;;;;;;;3.70;1.30;;;;;;;16.65;60.74;100187.78;4938922;28;99725;-46
2022/09/15 00:36:16;;;;;;;1.00;1.00;;;;;;;16.64;60.61;100178.00;4948029;28;101865;-47
2022/09/15 00:38:42;;;;;;;4.10;1.20;;;;;;;16.62;60.78;100188.16;4932405;28;97016;-47
2022/09/15 00:41:10;;;;;;;1.60;1.40;;;;;;;16.63;60.80;100189.63;4945487;28;97071;-47
2022/09/15 00:43:50;;;;;;;2.77;1.20;;;;;;;16.62;61.07;100188.88;4932858;28;99169;-46
2022/09/15 00:46:19;;;;;;;2.40;1.17;;;;;;;16.62;60.71;100188.16;4939625;28;97049;-47
2022/09/15 00:48:54;;;;;;;2.93;1.47;;;;;;;16.59;60.91;100181.66;4943171;28;97142;-46
2022/09/15 00:51:25;;;;;;;1.07;0.97;;;;;;;16.55;60.74;100189.59;4936095;28;97225;-47
2022/09/15 00:53:52;;;;;;;3.40;1.33;;;;;;;16.53;60.70;100181.06;4947240;28;97595;-47
2022/09/15 00:56:19;;;;;;;1.30;1.20;;;;;;;16.51;60.69;100180.88;4947588;28;97593;-46
2022/09/15 00:58:54;;;;;;;2.30;1.50;;;;;;;16.47;60.93;100178.38;4942825;28;97230;-47
2022/09/15 01:01:20;;;;;;;1.50;1.10;;;;;;;16.43;60.75;100189.09;4946213;28;96850;-47
2022/09/15 01:03:45;;;;;;;1.60;1.50;;;;;;;16.42;60.66;100195.19;4943432;28;98480;-47
2022/09/15 01:06:16;;;;;;;2.70;1.23;;;;;;;16.37;60.89;100194.06;4939307;28;97877;-47
2022/09/15 01:08:58;;;;;;;2.07;1.33;;;;;;;16.34;60.91;100192.34;4926980;28;97256;-46
2022/09/15 01:11:24;;;;;;;5.90;1.73;;;;;;;16.32;60.74;100194.94;4942394;28;97041;-48
2022/09/15 01:13:49;;;;;;;1.80;1.40;;;;;;;16.28;60.79;100194.53;4938705;28;97780;-45
2022/09/15 01:16:39;;;;;;;3.17;1.30;;;;;;;16.27;61.23;100197.84;4937363;28;101747;-46
2022/09/15 01:19:36;;;;;;;4.63;1.03;;;;;;;16.25;61.21;100192.09;4949342;28;97129;-47
2022/09/15 01:22:24;;;;;;;2.67;1.20;;;;;;;16.24;61.12;100187.84;4947018;28;97201;-46
2022/09/15 01:24:52;;;;;;;4.70;1.87;;;;;;;16.23;60.89;100186.31;4936726;28;101791;-47
2022/09/15 01:27:27;;;;;;;1.73;1.63;;;;;;;16.23;60.96;100187.09;4931262;28;97254;-47
2022/09/15 01:30:07;;;;;;;2.20;1.70;;;;;;;16.21;61.25;100189.66;4939382;28;97662;-46
2022/09/15 01:33:04;;;;;;;2.80;1.43;;;;;;;16.19;60.96;100192.22;4942297;28;97631;-47
2022/09/15 01:35:39;;;;;;;3.00;1.77;;;;;;;16.19;61.17;100180.38;4929517;28;101430;-46
2022/09/15 01:38:15;;;;;;;3.10;1.80;;;;;;;16.19;61.22;100178.34;4945442;28;96657;-46
2022/09/15 01:40:49;;;;;;;6.30;2.00;;;;;;;16.20;61.07;100177.06;4939544;28;96875;-46
2022/09/15 01:43:16;;;;;;;2.27;1.30;;;;;;;16.19;61.00;100174.81;4939528;28;97258;-48
2022/09/15 01:45:45;;;;;;;2.57;1.93;;;;;;;16.17;60.98;100180.19;4937100;28;97491;-47
2022/09/15 01:48:12;;;;;;;3.50;1.57;;;;;;;16.17;60.88;100169.81;4935212;28;97246;-48
2022/09/15 01:50:46;;;;;;;2.33;1.70;;;;;;;16.16;61.09;100179.44;4931605;28;97206;-48
2022/09/15 01:53:16;;;;;;;2.93;1.67;;;;;;;16.15;61.01;100175.19;4943008;28;97407;-48
2022/09/15 01:55:59;;;;;;;3.37;1.67;;;;;;;16.13;61.02;100179.78;4945148;28;96879;-46
2022/09/15 01:58:25;;;;;;;1.50;1.40;;;;;;;16.10;60.96;100183.63;4946922;28;96992;-47
2022/09/15 02:01:11;;;;;;;3.23;1.97;;;;;;;16.09;61.16;100182.91;4946521;28;97068;-47
2022/09/15 02:03:49;;;;;;;3.13;1.70;;;;;;;16.10;61.12;100189.94;4943773;28;96928;-44
2022/09/15 02:06:21;;;;;;;1.80;1.70;;;;;;;16.11;61.01;100190.69;4944398;28;100463;-46
2022/09/15 02:08:51;;;;;;;2.23;1.97;;;;;;;16.11;60.87;100185.88;4947444;28;98927;-46
2022/09/15 02:11:19;;;;;;;1.80;1.43;;;;;;;16.10;60.96;100184.38;4946984;28;97450;-45
2022/09/15 02:14:08;;;;;;;2.60;1.57;;;;;;;16.09;60.96;100179.38;4948748;28;97177;-45
2022/09/15 02:16:34;;;;;;;1.33;1.23;;;;;;;16.04;61.00;100183.03;4945929;28;101840;-48
2022/09/15 02:19:30;;;;;;;3.10;1.37;;;;;;;16.02;61.18;100185.59;4942681;28;97741;-47
2022/09/15 02:22:13;;;;;;;3.70;1.37;;;;;;;16.01;61.23;100182.06;4941099;28;96862;-47
2022/09/15 02:25:03;;;;;;;6.13;1.67;;;;;;;15.97;61.25;100176.13;4935815;28;97450;-46
2022/09/15 02:27:36;;;;;;;3.73;1.63;;;;;;;15.95;61.08;100181.47;4947237;28;102021;-46
2022/09/15 02:30:07;;;;;;;2.20;1.20;;;;;;;15.92;61.07;100170.72;4943992;28;101701;-48
2022/09/15 02:32:35;;;;;;;2.30;1.73;;;;;;;15.92;61.03;100171.47;4945958;28;97172;-46
2022/09/15 02:35:05;;;;;;;1.47;1.37;;;;;;;15.94;61.10;100170.91;4945545;28;97130;-47
2022/09/15 02:37:32;;;;;;;2.93;1.60;;;;;;;15.95;61.08;100178.69;4949558;28;97214;-47
2022/09/15 02:39:59;;;;;;;1.30;1.20;;;;;;;15.96;60.93;100182.22;4945905;28;97584;-46
2022/09/15 02:42:30;;;;;;;3.20;1.80;;;;;;;15.96;61.02;100171.13;4948570;28;97217;-46
2022/09/15 02:44:57;;;;;;;2.00;1.60;;;;;;;15.93;61.03;100172.19;4950793;28;97055;-46
2022/09/15 02:47:23;;;;;;;4.00;1.60;;;;;;;15.90;61.08;100164.97;4945982;28;97400;-47
2022/09/15 02:49:48;;;;;;;1.40;1.30;;;;;;;15.89;61.06;100166.25;4943186;28;98404;-47
2022/09/15 02:52:14;;;;;;;1.67;1.30;;;;;;;15.86;61.03;100168.06;4946562;28;97140;-46
2022/09/15 02:54:40;;;;;;;4.93;1.67;;;;;;;15.84;61.10;100170.63;4937315;28;97277;-46
2022/09/15 02:57:05;;;;;;;2.60;1.60;;;;;;;15.88;61.14;100186.97;4933978;28;110698;-47
2022/09/15 03:00:11;;;;;;;1.53;1.30;;;;;;;15.85;61.09;100177.69;4933960;28;97344;-47
2022/09/15 03:02:18;;;;;;;1.53;0.97;;;;;;;15.82;61.05;100170.44;4935273;28;97362;-46
2022/09/15 03:04:47;;;;;;;1.80;1.43;;;;;;;15.79;61.12;100165.97;4938552;28;97092;-46
2022/09/15 03:07:13;;;;;;;1.67;1.57;;;;;;;15.77;61.25;100165.75;4934879;28;97349;-47
2022/09/15 03:09:38;;;;;;;1.10;1.00;;;;;;;15.77;61.20;100174.06;4928077;28;97507;-47
2022/09/15 03:12:04;;;;;;;1.63;1.33;;;;;;;15.71;61.07;100167.91;4950544;28;109484;-47
2022/09/15 03:14:31;;;;;;;1.10;1.10;;;;;;;15.67;61.18;100167.50;4929227;28;97075;-47
2022/09/15 03:17:00;;;;;;;1.93;1.20;;;;;;;15.66;61.31;100168.81;4927898;28;98671;-47
2022/09/15 03:19:25;;;;;;;2.83;1.20;;;;;;;15.65;61.30;100167.31;4931903;28;97307;-46
2022/09/15 03:21:51;;;;;;;0.80;0.80;;;;;;;15.63;61.22;100169.88;4945331;28;97230;-47
2022/09/15 03:24:18;;;;;;;1.40;1.00;;;;;;;15.60;61.36;100163.38;4946424;28;97053;-46
2022/09/15 03:26:44;;;;;;;2.70;1.30;;;;;;;15.60;61.45;100173.72;4943461;28;97647;-47
2022/09/15 03:29:09;;;;;;;1.00;0.90;;;;;;;15.57;61.42;100175.53;4948065;28;98319;-47
2022/09/15 03:31:35;;;;;;;1.43;1.13;;;;;;;15.58;61.50;100176.28;4949486;28;97425;-47
2022/09/15 03:34:00;;;;;;;1.53;0.97;;;;;;;15.58;61.52;100177.03;4938309;28;106876;-47
2022/09/15 03:36:26;;;;;;;1.53;1.03;;;;;;;15.60;61.47;100187.56;4944022;28;97483;-46
2022/09/15 03:38:51;;;;;;;2.50;1.00;;;;;;;15.62;61.54;100176.69;4939084;28;97362;-47
2022/09/15 03:41:17;;;;;;;1.90;0.90;;;;;;;15.65;61.61;100178.41;4941652;28;98581;-46
2022/09/15 03:43:43;;;;;;;2.83;1.23;;;;;;;15.69;61.61;100176.03;4937455;28;97582;-47
2022/09/15 03:46:10;;;;;;;1.80;1.00;;;;;;;15.73;61.50;100188.28;4939994;28;97792;-47
2022/09/15 03:48:36;;;;;;;1.23;1.13;;;;;;;15.77;61.63;100187.94;4933222;28;97347;-47
2022/09/15 03:51:03;;;;;;;2.20;1.27;;;;;;;15.81;61.71;100180.06;4944323;28;97349;-47
2022/09/15 03:53:34;;;;;;;5.13;1.33;;;;;;;15.83;61.54;100185.81;4939862;28;96828;-47
2022/09/15 03:56:08;;;;;;;1.10;0.87;;;;;;;15.86;61.90;100179.16;4935108;28;97532;-46
2022/09/15 03:58:34;;;;;;;4.37;1.30;;;;;;;15.86;61.64;100181.94;4943250;28;98852;-46
2022/09/15 04:00:59;;;;;;;1.10;1.10;;;;;;;15.89;61.62;100180.84;4927719;28;97411;-47
2022/09/15 04:03:24;;;;;;;1.67;1.17;;;;;;;15.92;61.67;100184.59;4934798;28;101712;-47
2022/09/15 04:05:50;;;;;;;3.00;1.20;;;;;;;15.95;61.64;100184.25;4948543;28;97504;-47
2022/09/15 04:08:15;;;;;;;4.00;1.40;;;;;;;15.98;61.84;100182.41;4949002;28;116193;-46
2022/09/15 04:10:40;;;;;;;1.60;1.50;;;;;;;16.00;61.46;100186.16;4944100;28;97330;-47
2022/09/15 04:13:06;;;;;;;1.50;1.40;;;;;;;16.01;61.76;100181.34;4942249;28;96989;-47
2022/09/15 04:15:32;;;;;;;2.80;1.53;;;;;;;16.03;61.74;100193.38;4943694;28;98522;-47
2022/09/15 04:17:57;;;;;;;2.03;1.30;;;;;;;16.07;61.64;100198.59;4947893;28;111859;-47
2022/09/15 04:20:22;;;;;;;6.53;2.17;;;;;;;16.09;61.75;100182.91;4935966;28;106588;-47
2022/09/15 04:22:47;;;;;;;1.50;1.40;;;;;;;16.10;61.67;100189.19;4948783;28;97086;-47
2022/09/15 04:25:13;;;;;;;3.13;1.27;;;;;;;16.11;61.69;100182.34;4947912;28;97418;-47
2022/09/15 04:27:38;;;;;;;2.10;1.30;;;;;;;16.14;61.75;100182.00;4934805;28;96893;-46
2022/09/15 04:30:05;;;;;;;2.33;1.40;;;;;;;16.17;61.74;100183.72;4943142;28;96992;-47
2022/09/15 04:32:31;;;;;;;1.73;1.20;;;;;;;16.16;61.86;100173.88;4934564;28;97399;-47
2022/09/15 04:34:56;;;;;;;1.40;1.30;;;;;;;16.17;61.93;100171.84;4942915;28;97600;-47
2022/09/15 04:37:22;;;;;;;2.03;1.70;;;;;;;16.15;61.83;100168.88;4937058;28;97218;-47
2022/09/15 04:39:47;;;;;;;2.57;1.70;;;;;;;16.15;61.97;100174.44;4932120;28;97382;-47
2022/09/15 04:42:13;;;;;;;2.00;1.60;;;;;;;16.13;62.00;100161.09;4944434;28;96876;-47
2022/09/15 04:44:38;;;;;;;3.03;2.00;;;;;;;16.13;61.95;100160.34;4940538;28;97418;-47
2022/09/15 04:47:03;;;;;;;3.80;1.97;;;;;;;16.12;62.05;100169.97;4929342;28;118305;-47
2022/09/15 04:49:30;;;;;;;6.73;2.43;;;;;;;16.12;62.00;100164.44;4936019;28;96864;-46
2022/09/15 04:51:55;;;;;;;2.50;2.30;;;;;;;16.11;62.04;100166.44;4938247;28;97136;-47
2022/09/15 04:54:20;;;;;;;3.17;2.23;;;;;;;16.10;62.02;100164.19;4943417;28;97416;-47
2022/09/15 04:56:46;;;;;;;1.80;1.70;;;;;;;16.09;62.02;100168.28;4929252;28;109035;-47
2022/09/15 04:59:14;;;;;;;4.20;1.83;;;;;;;16.08;62.18;100164.75;4940317;28;96999;-48
2022/09/15 05:01:39;;;;;;;3.43;2.40;;;;;;;16.08;62.11;100170.31;4943327;28;97338;-46
2022/09/15 05:04:05;;;;;;;5.73;2.20;;;;;;;16.08;62.32;100170.31;4938137;28;98442;-46
2022/09/15 05:06:30;;;;;;;2.27;2.07;;;;;;;16.08;62.12;100173.06;4945491;28;101564;-46
2022/09/15 05:08:57;;;;;;;4.77;2.30;;;;;;;16.09;62.16;100177.34;4927310;28;97267;-47
2022/09/15 05:11:23;;;;;;;9.00;2.87;;;;;;;16.07;62.20;100171.59;4929625;28;97200;-47
2022/09/15 05:13:49;;;;;;;3.80;2.43;;;;;;;16.05;62.14;100176.94;4926455;28;97272;-46
2022/09/15 05:16:20;;;;;;;3.60;2.30;;;;;;;16.08;62.24;100183.44;4939807;28;97281;-47
2022/09/15 05:18:46;;;;;;;2.60;2.40;;;;;;;16.08;62.24;100178.63;4934575;28;97008;-47
2022/09/15 05:21:14;;;;;;;4.73;2.20;;;;;;;16.08;62.19;100191.75;4900359;28;1187328;-47
2022/09/15 05:23:40;;;;;;;2.20;2.00;;;;;;;16.10;62.09;100189.19;4942621;28;98850;-47
2022/09/15 05:26:15;;;;;;;4.70;2.67;;;;;;;16.11;62.31;100196.97;4945631;28;96690;-48
2022/09/15 05:28:41;;;;;;;2.77;2.33;;;;;;;16.11;62.17;100199.75;4929343;28;98375;-47
2022/09/15 05:31:12;;;;;;;3.53;2.73;;;;;;;16.13;62.29;100188.84;4925536;28;97412;-46
2022/09/15 05:33:37;;;;;;;2.83;2.17;;;;;;;16.14;62.18;100197.94;4938892;28;101257;-46
2022/09/15 05:36:03;;;;;;;3.30;3.00;;;;;;;16.15;62.29;100202.19;4938063;28;98342;-47
2022/09/15 05:38:30;;;;;;;2.83;2.63;;;;;;;16.17;62.00;100208.69;4927677;28;96777;-47
2022/09/15 05:41:09;;;;;;;2.73;2.50;;;;;;;16.19;62.38;100208.88;4927062;28;97540;-47
2022/09/15 05:43:35;;;;;;;2.83;2.10;;;;;;;16.20;62.21;100204.09;4939152;28;97807;-47
2022/09/15 05:46:01;;;;;;;2.97;2.10;;;;;;;16.22;62.25;100201.50;4942477;28;97519;-47
2022/09/15 05:48:26;;;;;;;2.60;2.40;;;;;;;16.24;62.23;100205.22;4932727;28;97371;-47
2022/09/15 05:50:53;;;;;;;5.13;2.47;;;;;;;16.25;62.25;100206.72;4935535;28;97369;-47
2022/09/15 05:53:19;;;;;;;2.37;2.17;;;;;;;16.27;62.20;100203.41;4936284;28;97135;-47
2022/09/15 05:55:45;;;;;;;3.23;2.20;;;;;;;16.29;62.21;100195.28;4926955;28;97683;-47
2022/09/15 05:58:10;;;;;;;7.77;2.90;;;;;;;16.30;62.41;100199.53;4936032;28;97132;-47
2022/09/15 06:00:36;;;;;;;6.07;2.00;;;;;;;16.32;62.25;100211.59;4934550;28;96897;-47
2022/09/15 06:03:02;;;;;;;2.40;1.80;;;;;;;16.34;62.28;100211.78;4929540;28;96725;-46
2022/09/15 06:05:28;;;;;;;1.70;1.60;;;;;;;16.37;62.24;100202.38;4930414;28;97329;-46
2022/09/15 06:07:54;;;;;;;3.70;2.23;;;;;;;16.40;62.27;100211.66;4940246;28;97070;-47
2022/09/15 06:10:23;;;;;;;1.90;1.80;;;;;;;16.41;62.31;100210.34;4941040;28;97469;-47
2022/09/15 06:12:52;;;;;;;2.30;1.97;;;;;;;16.42;62.21;100206.31;4927006;28;97445;-47
2022/09/15 06:15:18;;;;;;;2.90;2.00;;;;;;;16.42;62.30;100201.47;4947220;28;96983;-46
2022/09/15 06:17:43;;;;;;;1.87;1.77;;;;;;;16.43;62.34;100207.78;4940820;28;97085;-47
2022/09/15 06:20:09;;;;;;;3.67;1.70;;;;;;;16.43;62.38;100200.19;4936011;28;97079;-48
2022/09/15 06:22:34;;;;;;;3.27;2.00;;;;;;;16.44;62.44;100198.94;4934326;28;97216;-47
2022/09/15 06:24:59;;;;;;;3.33;1.70;;;;;;;16.46;62.24;100203.94;4941376;28;108773;-47
2022/09/15 06:27:25;;;;;;;2.80;1.50;;;;;;;16.49;62.44;100208.38;4936746;28;96974;-47
2022/09/15 06:29:50;;;;;;;2.40;1.50;;;;;;;16.51;62.41;100205.84;4926568;28;97444;-47
2022/09/15 06:32:16;;;;;;;2.53;1.73;;;;;;;16.56;62.39;100210.50;4939374;28;96958;-47
2022/09/15 06:34:41;;;;;;;1.87;1.77;;;;;;;16.60;62.41;100207.41;4943974;28;97293;-47
2022/09/15 06:37:07;;;;;;;1.63;1.53;;;;;;;16.63;62.42;100207.03;4944501;28;96877;-49
2022/09/15 06:39:32;;;;;;;3.07;1.80;;;;;;;16.66;62.36;100200.41;4936829;28;97046;-47
2022/09/15 06:41:58;;;;;;;1.70;1.60;;;;;;;16.71;62.39;100204.31;4944034;28;96893;-48
2022/09/15 06:44:23;;;;;;;1.97;1.87;;;;;;;16.75;62.37;100202.69;4946534;28;97723;-48
2022/09/15 06:46:49;;;;;;;2.30;1.57;;;;;;;16.78;62.36;100184.16;4945520;28;96825;-48
2022/09/15 06:49:15;;;;;;;4.00;1.60;;;;;;;16.84;62.40;100190.34;4947896;28;97102;-48
2022/09/15 06:51:40;;;;;;;1.40;1.30;;;;;;;16.88;62.13;100196.28;4930613;28;97443;-48
2022/09/15 06:54:06;;;;;;;1.47;1.30;;;;;;;16.93;62.28;100198.16;4936884;28;97151;-47
2022/09/15 06:56:32;;;;;;;1.80;1.47;;;;;;;16.99;62.35;100205.03;4931176;28;97038;-48
2022/09/15 06:58:58;;;;;;;2.70;1.50;;;;;;;17.02;62.24;100203.94;4935947;28;96986;-48
2022/09/15 07:01:29;;;;;;;1.63;1.53;;;;;;;17.08;62.12;100204.53;4942354;28;98881;-48
2022/09/15 07:03:56;;;;;;;3.63;1.90;;;;;;;17.09;62.24;100210.84;4942296;28;100176;-47
2022/09/15 07:06:21;;;;;;;5.50;1.73;;;;;;;17.12;62.14;100206.97;4934225;28;97220;-47
2022/09/15 07:08:48;;;;;;;4.23;1.50;;;;;;;17.14;62.21;100215.50;4926778;28;97076;-47
2022/09/15 07:11:14;;;;;;;1.50;1.30;;;;;;;17.17;62.23;100225.50;4930768;28;97108;-48
2022/09/15 07:13:40;;;;;;;1.77;1.00;;;;;;;17.21;62.17;100209.25;4933526;28;97332;-48
2022/09/15 07:16:07;;;;;;;2.10;1.33;;;;;;;17.25;62.18;100207.56;4945892;28;97376;-47
2022/09/15 07:18:33;;;;;;;2.03;1.23;;;;;;;17.29;62.10;100212.03;4935474;28;96968;-48
2022/09/15 07:21:02;;;;;;;1.70;1.30;;;;;;;17.31;62.13;100213.00;4946370;28;96808;-48
2022/09/15 07:23:28;;;;;;;3.47;1.10;;;;;;;17.35;62.09;100218.19;4941833;28;97184;-46
2022/09/15 07:26:05;;;;;;;5.10;1.50;;;;;;;17.41;62.33;100216.00;4944143;28;96754;-47
2022/09/15 07:28:31;;;;;;;1.73;1.40;;;;;;;17.44;62.08;100221.19;4945072;28;97366;-48
2022/09/15 07:30:56;;;;;;;2.50;1.40;;;;;;;17.49;62.01;100225.13;4941642;28;97119;-47
2022/09/15 07:33:22;;;;;;;1.90;1.00;;;;;;;17.54;61.90;100227.03;4944304;28;99845;-47
2022/09/15 07:35:47;;;;;;;1.10;1.00;;;;;;;17.57;62.00;100235.00;4943960;28;97099;-47
2022/09/15 07:38:12;;;;;;;3.07;1.40;;;;;;;17.64;61.88;100242.63;4940443;28;97777;-47
2022/09/15 07:40:38;;;;;;;1.20;1.00;;;;;;;17.71;61.75;100250.25;4945140;28;96928;-48
2022/09/15 07:43:04;;;;;;;1.17;1.07;;;;;;;17.73;61.57;100244.91;4932362;28;113101;-47
2022/09/15 07:45:30;;;;;;;0.93;0.83;;;;;;;17.73;61.72;100239.34;4947353;28;97232;-47
2022/09/15 07:47:55;;;;;;;1.53;0.80;;;;;;;17.75;61.74;100244.34;4931745;28;97602;-48
2022/09/15 07:50:21;;;;;;;0.80;0.70;;;;;;;17.78;61.58;100249.53;4937126;28;97506;-48
2022/09/15 07:52:46;;;;;;;1.80;1.17;;;;;;;17.82;61.74;100255.47;4934671;28;97118;-47
2022/09/15 07:55:12;;;;;;;2.00;0.90;;;;;;;17.85;61.47;100253.63;4928019;28;96919;-47
2022/09/15 07:57:37;;;;;;;1.03;0.83;;;;;;;17.88;61.40;100253.28;4942233;28;97033;-48
2022/09/15 08:00:03;;;;;;;2.07;1.10;;;;;;;17.94;61.37;100251.06;4942542;28;97103;-48
2022/09/15 08:02:28;;;;;;;3.27;1.10;;;;;;;18.00;61.32;100244.59;4936979;28;98646;-48
2022/09/15 08:04:56;;;;;;;2.63;1.13;;;;;;;18.03;61.46;100254.59;4943685;28;96878;-47
2022/09/15 08:07:22;;;;;;;1.00;0.63;;;;;;;18.09;61.31;100252.38;4933453;28;97352;-48
2022/09/15 08:09:48;;;;;;;1.13;1.00;;;;;;;18.14;61.25;100248.69;4927831;28;97305;-47
2022/09/15 08:12:13;;;;;;;4.53;1.10;;;;;;;18.16;61.08;100255.19;4934804;28;97100;-47
2022/09/15 08:14:38;;;;;;;2.00;0.97;;;;;;;18.20;60.97;100252.03;4927752;28;97027;-48
2022/09/15 08:17:04;;;;;;;1.73;1.17;;;;;;;18.22;60.85;100257.78;4941538;28;96916;-50
2022/09/15 08:19:31;;;;;;;1.13;0.80;;;;;;;18.27;60.73;100248.53;4934298;28;97898;-48
2022/09/15 08:21:57;;;;;;;2.67;0.70;;;;;;;18.34;60.92;100256.16;4933581;28;97946;-48
2022/09/15 08:24:22;;;;;;;1.80;1.00;;;;;;;18.41;60.72;100252.63;4936662;28;97233;-47
2022/09/15 08:26:49;;;;;;;2.70;1.03;;;;;;;18.49;60.40;100258.97;4937915;28;97077;-47
2022/09/15 08:29:14;;;;;;;1.93;0.60;;;;;;;18.56;60.42;100261.03;4949219;28;98119;-48
2022/09/15 08:31:40;;;;;;;1.00;0.77;;;;;;;18.60;59.92;100259.34;4949902;28;97099;-47
2022/09/15 08:34:05;;;;;;;3.50;0.67;;;;;;;18.67;60.03;100255.78;4943374;28;96955;-48
2022/09/15 08:36:34;;;;;;;3.37;1.00;;;;;;;18.84;59.83;100263.59;4944121;28;97326;-48
2022/09/15 08:38:59;;;;;;;1.83;0.60;;;;;;;18.96;59.78;100263.97;4935427;28;96971;-47
2022/09/15 08:41:31;;;;;;;2.40;0.87;;;;;;;18.99;59.34;100277.50;4945889;28;96704;-48
2022/09/15 08:44:07;;;;;;;2.60;0.87;;;;;;;19.04;59.20;100271.00;4948389;28;97205;-48
2022/09/15 08:47:11;;;;;;;1.43;0.73;;;;;;;19.07;59.02;100272.66;4947850;28;97492;-48
2022/09/15 08:49:50;;;;;;;1.23;0.40;;;;;;;19.11;59.33;100278.59;4932942;28;101896;-48
2022/09/15 08:52:22;;;;;;;1.17;0.50;;;;;;;19.18;59.06;100277.09;4950964;28;96746;-48
2022/09/15 08:54:52;;;;;;;1.37;0.70;;;;;;;19.17;59.13;100281.94;4939793;28;97272;-48
2022/09/15 08:57:21;;;;;;;1.83;0.60;;;;;;;19.17;58.94;100281.94;4939679;28;96892;-48
2022/09/15 08:59:47;;;;;;;1.63;0.87;;;;;;;19.15;59.01;100284.56;4945872;28;97533;-46
2022/09/15 09:02:12;;;;;;;0.90;0.60;;;;;;;19.15;59.00;100287.34;4934765;28;98298;-48
2022/09/15 09:05:08;;;;;;;1.00;0.53;;;;;;;19.15;59.03;100295.72;4940622;28;96864;-47
2022/09/15 09:08:01;;;;;;;2.40;0.70;;;;;;;19.20;58.43;100296.78;4948506;28;96827;-48
2022/09/15 09:10:50;;;;;;;1.67;1.00;;;;;;;19.34;58.45;100295.28;4946497;28;101884;-47
2022/09/15 09:13:33;;;;;;;1.53;0.63;;;;;;;19.60;58.30;100297.66;4945106;28;100381;-48
2022/09/15 09:16:17;;;;;;;1.80;0.63;;;;;;;19.77;58.39;100292.19;4941467;28;97217;-47
2022/09/15 09:19:10;;;;;;;1.13;0.90;;;;;;;19.95;57.13;100296.56;4947584;28;97224;-48
2022/09/15 09:21:40;;;;;;;3.93;0.50;;;;;;;20.05;57.54;100294.66;4944468;28;100996;-48
2022/09/15 09:24:11;;;;;;;1.10;0.73;;;;;;;20.11;57.46;100300.03;4937922;28;97101;-48
2022/09/15 09:26:38;;;;;;;5.43;0.97;;;;;;;20.18;57.16;100293.66;4927548;28;97246;-47
2022/09/15 09:29:17;;;;;;;2.77;0.73;;;;;;;20.27;56.19;100281.88;4948163;28;96798;-47
2022/09/15 09:31:47;;;;;;;2.40;0.67;;;;;;;20.39;57.04;100276.59;4947417;28;101940;-47
2022/09/15 09:34:30;;;;;;;2.43;0.80;;;;;;;20.52;56.02;100281.91;4944486;28;97202;-48
2022/09/15 09:36:58;;;;;;;1.50;0.70;;;;;;;20.61;56.25;100281.28;4942419;28;97357;-47
2022/09/15 09:39:25;;;;;;;0.87;0.60;;;;;;;20.55;56.07;100281.47;4944124;28;96915;-48
2022/09/15 09:41:51;;;;;;;0.97;0.60;;;;;;;20.52;56.20;100282.63;4945211;28;97626;-48
2022/09/15 09:44:18;;;;;;;1.40;0.70;;;;;;;20.53;56.11;100281.31;4948346;28;96786;-48
2022/09/15 09:46:45;;;;;;;1.50;0.63;;;;;;;20.60;56.08;100280.53;4937933;28;96795;-47
2022/09/15 09:49:21;;;;;;;1.87;0.90;;;;;;;20.65;55.38;100267.63;4944195;28;97423;-47
2022/09/15 09:51:52;;;;;;;1.40;0.47;;;;;;;20.62;55.13;100277.91;4924780;28;97018;-47
2022/09/15 09:54:20;;;;;;;0.90;0.60;;;;;;;20.47;55.43;100275.22;4926130;28;97189;-47
2022/09/15 09:56:49;;;;;;;4.73;0.90;;;;;;;20.38;55.28;100275.13;4934933;28;97440;-48
2022/09/15 09:59:40;;;;;;;2.73;0.50;;;;;;;20.34;54.58;100280.34;4942937;28;97325;-48
2022/09/15 10:02:09;;;;;;;1.80;0.57;;;;;;;20.46;55.44;100270.22;4946276;28;102262;-48
2022/09/15 10:04:34;;;;;;;0.70;0.50;;;;;;;20.57;55.37;100267.72;4948776;28;97899;-48
2022/09/15 10:07:00;;;;;;;2.10;0.70;;;;;;;20.71;55.19;100273.72;4947525;28;96824;-47
2022/09/15 10:09:25;;;;;;;0.73;0.50;;;;;;;20.76;54.79;100256.72;4946886;28;97335;-47
2022/09/15 10:11:52;;;;;;;2.10;0.60;;;;;;;20.82;54.59;100267.66;4948484;28;97395;-47
2022/09/15 10:14:26;;;;;;;1.73;0.80;;;;;;;20.88;53.88;100268.91;4948214;28;97355;-47
2022/09/15 10:17:15;;;;;;;1.30;0.50;;;;;;;21.00;52.76;100260.78;4946827;28;97246;-47
2022/09/15 10:19:55;;;;;;;0.80;0.57;;;;;;;21.19;52.56;100260.22;4947864;28;96959;-47
2022/09/15 10:22:31;;;;;;;1.40;0.50;;;;;;;21.28;52.48;100265.16;4945623;28;101726;-46
2022/09/15 10:24:59;;;;;;;1.63;0.50;;;;;;;21.41;53.51;100259.25;4946771;28;100054;-47
2022/09/15 10:27:35;;;;;;;1.27;0.60;;;;;;;21.50;51.75;100255.78;4943520;28;97492;-47
2022/09/15 10:30:13;;;;;;;0.70;0.50;;;;;;;21.46;50.92;100256.19;4945909;28;97903;-47
2022/09/15 10:32:40;;;;;;;2.30;0.40;;;;;;;21.40;52.70;100257.78;4947084;28;97088;-47
2022/09/15 10:35:10;;;;;;;1.40;0.43;;;;;;;21.31;52.16;100264.78;4946547;28;98424;-47
2022/09/15 10:37:52;;;;;;;1.30;0.57;;;;;;;21.24;51.78;100257.19;4945761;28;97448;-47
2022/09/15 10:40:49;;;;;;;0.90;0.80;;;;;;;21.16;51.01;100264.94;4946154;28;97306;-47
2022/09/15 10:43:45;;;;;;;4.40;1.17;;;;;;;21.09;51.74;100265.00;4944512;28;100528;-47
2022/09/15 10:46:16;;;;;;;3.30;0.87;;;;;;;21.04;52.66;100275.13;4945020;28;102861;-47
2022/09/15 10:48:55;;;;;;;1.20;0.50;;;;;;;20.97;51.99;100280.78;4953012;28;96696;-47
2022/09/15 10:51:50;;;;;;;1.47;0.70;;;;;;;20.92;51.67;100288.09;4948251;28;97764;-47
2022/09/15 10:54:29;;;;;;;1.77;0.60;;;;;;;20.85;51.81;100286.09;4951742;28;103296;-47
2022/09/15 10:57:08;;;;;;;2.40;0.60;;;;;;;20.77;51.75;100291.75;4949021;28;106819;-47
2022/09/15 11:00:10;;;;;;;2.00;0.60;;;;;;;20.64;51.55;100306.00;4946978;28;97166;-47
2022/09/15 11:03:10;;;;;;;1.70;0.60;;;;;;;20.47;48.63;100321.97;4944625;28;97152;-47
2022/09/15 11:05:41;;;;;;;2.17;0.60;;;;;;;20.30;52.83;100325.44;4932170;28;100395;-47
2022/09/15 11:08:15;;;;;;;0.60;0.40;;;;;;;20.14;52.01;100324.75;4931425;28;97105;-48
2022/09/15 11:11:16;;;;;;;1.80;0.50;;;;;;;20.04;52.92;100323.16;4932137;28;97115;-48
2022/09/15 11:14:09;;;;;;;1.07;0.57;;;;;;;19.87;52.07;100323.06;4941515;28;104162;-48
2022/09/15 11:17:09;;;;;;;1.50;0.50;;;;;;;19.75;52.25;100321.97;4926989;28;102305;-47
2022/09/15 11:20:01;;;;;;;3.43;0.70;;;;;;;19.65;52.38;100318.28;4945100;28;101689;-47
2022/09/15 11:22:32;;;;;;;0.63;0.50;;;;;;;19.67;53.33;100310.84;4940282;28;97234;-47
2022/09/15 11:25:16;;;;;;;1.97;0.43;;;;;;;19.80;52.71;100315.44;4940593;28;97911;-47
2022/09/15 11:27:50;;;;;;;0.50;0.40;;;;;;;19.94;52.64;100306.25;4924053;28;98000;-47
2022/09/15 11:30:19;;;;;;;1.73;0.60;;;;;;;20.03;52.54;100302.84;4943805;28;102059;-47
2022/09/15 11:33:17;;;;;;;2.20;0.67;;;;;;;20.15;52.23;100303.16;4938551;28;96782;-47
2022/09/15 11:35:59;;;;;;;0.83;0.50;;;;;;;20.29;52.17;100301.59;4944363;28;97264;-47
2022/09/15 11:38:41;;;;;;;1.13;0.50;;;;;;;20.36;52.17;100300.06;4946404;28;103258;-47
2022/09/15 11:41:15;;;;;;;1.80;0.67;;;;;;;20.41;52.31;100293.53;4933250;28;101617;-46